POU weather

Dutchess County Airport
Poughkeepsie, New York, United States

Public forecast

Using degrees Fahrenheit for public forecast. Weather courtesy of forecast.io.

METAR (pilot weather report)

Retrieved 2019/04/25 08:53 UTC (29 minutes ago):

KPOU 250853Z AUTO 00000KT 10SM CLR 05/02 A2993 RMK AO2 SLP131 T00500022 56008

TAF (pilot weather forecast)

Retrieved 2019/04/25 06:22 UTC (3 hours ago):

TAF KPOU 250520Z 2506/2606 VRB03KT P6SM BKN250 FM251800 22006KT P6SM BKN250 FM260000 VRB03KT P6SM VCSH OVC070